Elizabeth City Cg Air Station Regional Airport
KECG : now visible

Airfield :











YOU CAN JOIN US ON...

 
LOGIN :

Register | Disclaimer

   EN    FR    IT 

 









Legend :    VFR   Marginal VFR   IFR   Intensive IFR   Very Intensive IFR
Visi :
Ceiling :
>= 8 km
>= 3000ft
5 to 8 km
1000 to 3000 ft
1500m to 5 km
500 to 1000 ft
800 to 1500m
200 to 500 ft
< 800m
< 200 ft
Symbols :   Thunderstorms  Fog  Heavy snow  Heavy precipitations  Wind > 20 kt






- Airport Elevation : 12 ft


KECG - Elizabeth City Cg Air Station Regional

CURRENT METAR :
  • 221254Z 21012KT 10SM CLR 26/22 A3016 RMK AO2 SLP212 T02610217

EXPIRED METARs :
  • 221154Z 21010KT 10SM CLR 25/22 A3016 RMK AO2 SLP212 T02500217 10250 20233 50007
  • 221054Z 21009KT 10SM FEW013 24/22 A3016 RMK AO2 SLP213 T02390217

TAF KECG
Valid from the 22 at 12:00 until the 23 at 12:00 UTC


221120Z 2212/2312 22010KT P6SM FEW015 BKN200
FM221600 22012KT P6SM BKN200
FM230000 22008KT P6SM BKN150
FM230700 25005KT P6SM BKN100
FM230900 31005KT P6SM BKN070
KZDC FIR / North America



MET'MAP, your aeronautical weather chart ! - Copyright ORBIFLY December 2007 - Disclaimer

ORBIFLY MET'MAP TEAM :

Programming & Development : Alexandra Zaïnal
Original concept : Baudouin d'Aumeries
Technical & hardware support : Manuel Goepfert
Assistance : Marc-Olivier Méhu

Contact : metmap@orbifly.com




SOURCES & CREDITS :

   NOAA       Earth
Advisory